OYTZ/TAI METAR and TAF weather

Enter ICAO airport designator
Station Type Date Time Source
OYTZ METAR 2016/12/15 11:00 UTC NOAA

OYTZ 151100Z NI


Station Type Date Time Source
OYTZ Decoded METAR 2016/12/15 11:00 UTC NOAA

Taiz, Yemen (OYTZ) 13-41N 044-08E 1385M
Dec 15, 2016 - 06:00 AM EST / 2016.12.15 1100 UTC
ob: OYTZ 151100Z NI
cycle: 11

Station Type Date Time Source
OYTZ TAF 2015/03/25 12:09 UTC NOAA

TAF OYTZ 250822Z 2512/2618 16012KT 8000 SCT020
TEMPO 2512/2518 FEW020CB SCT030
BECMG 2520/2522 VRB03KT
BECMG 2606/2608 16012KT
TEMPO 2610/2618 TSRA FEW025CB


Example: see airport list